sensor_id;sensor_type;location;lat;lon;timestamp;P1;durP1;ratioP1;P2;durP2;ratioP2
62582;SDS011;48641;51.676;5.808;2022-07-19T00:00:00;6.95;;;3.50;;
62582;SDS011;48641;51.676;5.808;2022-07-19T00:02:28;7.30;;;3.78;;
62582;SDS011;48641;51.676;5.808;2022-07-19T00:04:54;8.45;;;3.90;;
62582;SDS011;48641;51.676;5.808;2022-07-19T00:07:20;7.07;;;4.03;;
62582;SDS011;48641;51.676;5.808;2022-07-19T00:09:45;6.88;;;3.22;;
62582;SDS011;48641;51.676;5.808;2022-07-19T00:12:11;6.38;;;3.83;;
62582;SDS011;48641;51.676;5.808;2022-07-19T00:14:38;9.32;;;3.85;;
62582;SDS011;48641;51.676;5.808;2022-07-19T00:17:04;7.50;;;3.83;;
62582;SDS011;48641;51.676;5.808;2022-07-19T00:19:30;7.07;;;3.90;;
62582;SDS011;48641;51.676;5.808;2022-07-19T00:21:55;6.70;;;3.50;;
62582;SDS011;48641;51.676;5.808;2022-07-19T00:24:21;7.35;;;3.70;;
62582;SDS011;48641;51.676;5.808;2022-07-19T00:26:46;6.43;;;3.38;;
62582;SDS011;48641;51.676;5.808;2022-07-19T00:29:12;6.38;;;3.63;;
62582;SDS011;48641;51.676;5.808;2022-07-19T00:31:38;6.97;;;3.42;;
62582;SDS011;48641;51.676;5.808;2022-07-19T00:34:03;6.38;;;3.30;;
62582;SDS011;48641;51.676;5.808;2022-07-19T00:36:29;7.80;;;3.78;;
62582;SDS011;48641;51.676;5.808;2022-07-19T00:38:54;7.57;;;3.97;;
62582;SDS011;48641;51.676;5.808;2022-07-19T00:41:20;6.82;;;3.90;;
62582;SDS011;48641;51.676;5.808;2022-07-19T00:43:45;6.95;;;3.30;;
62582;SDS011;48641;51.676;5.808;2022-07-19T00:46:12;6.60;;;3.50;;
62582;SDS011;48641;51.676;5.808;2022-07-19T00:48:38;8.85;;;3.67;;
62582;SDS011;48641;51.676;5.808;2022-07-19T00:51:05;7.50;;;3.72;;
62582;SDS011;48641;51.676;5.808;2022-07-19T00:53:31;8.45;;;3.60;;
62582;SDS011;48641;51.676;5.808;2022-07-19T00:55:59;8.32;;;4.10;;
62582;SDS011;48641;51.676;5.808;2022-07-19T00:58:26;7.68;;;3.42;;
62582;SDS011;48641;51.676;5.808;2022-07-19T01:00:52;7.28;;;3.72;;
62582;SDS011;48641;51.676;5.808;2022-07-19T01:03:18;7.50;;;3.42;;
62582;SDS011;48641;51.676;5.808;2022-07-19T01:05:45;8.52;;;3.75;;
62582;SDS011;48641;51.676;5.808;2022-07-19T01:08:11;7.90;;;3.45;;
62582;SDS011;48641;51.676;5.808;2022-07-19T01:10:37;7.75;;;3.72;;
62582;SDS011;48641;51.676;5.808;2022-07-19T01:13:03;7.20;;;3.60;;
62582;SDS011;48641;51.676;5.808;2022-07-19T01:15:29;7.72;;;3.60;;
62582;SDS011;48641;51.676;5.808;2022-07-19T01:17:54;6.25;;;3.67;;
62582;SDS011;48641;51.676;5.808;2022-07-19T01:20:20;7.45;;;3.75;;
62582;SDS011;48641;51.676;5.808;2022-07-19T01:22:48;6.20;;;3.47;;
62582;SDS011;48641;51.676;5.808;2022-07-19T01:25:14;7.78;;;3.42;;
62582;SDS011;48641;51.676;5.808;2022-07-19T01:27:45;6.95;;;3.70;;
62582;SDS011;48641;51.676;5.808;2022-07-19T01:30:14;8.05;;;4.22;;
62582;SDS011;48641;51.676;5.808;2022-07-19T01:32:41;6.30;;;3.47;;
62582;SDS011;48641;51.676;5.808;2022-07-19T01:35:07;9.80;;;3.45;;
62582;SDS011;48641;51.676;5.808;2022-07-19T01:37:34;7.35;;;3.70;;
62582;SDS011;48641;51.676;5.808;2022-07-19T01:40:01;7.50;;;3.95;;
62582;SDS011;48641;51.676;5.808;2022-07-19T01:42:28;8.30;;;3.90;;
62582;SDS011;48641;51.676;5.808;2022-07-19T01:44:53;7.60;;;3.90;;
62582;SDS011;48641;51.676;5.808;2022-07-19T01:47:19;6.78;;;3.67;;
62582;SDS011;48641;51.676;5.808;2022-07-19T01:49:45;7.00;;;3.67;;
62582;SDS011;48641;51.676;5.808;2022-07-19T01:52:10;7.72;;;3.97;;
62582;SDS011;48641;51.676;5.808;2022-07-19T01:54:36;6.85;;;3.50;;
62582;SDS011;48641;51.676;5.808;2022-07-19T01:57:01;7.38;;;3.70;;
62582;SDS011;48641;51.676;5.808;2022-07-19T01:59:27;6.70;;;3.50;;
62582;SDS011;48641;51.676;5.808;2022-07-19T02:01:53;8.63;;;3.60;;
62582;SDS011;48641;51.676;5.808;2022-07-19T02:04:18;7.65;;;3.47;;
62582;SDS011;48641;51.676;5.808;2022-07-19T02:06:44;8.00;;;4.15;;
62582;SDS011;48641;51.676;5.808;2022-07-19T02:09:09;6.82;;;3.90;;
62582;SDS011;48641;51.676;5.808;2022-07-19T02:11:35;6.70;;;3.88;;
62582;SDS011;48641;51.676;5.808;2022-07-19T02:14:01;7.18;;;3.38;;
62582;SDS011;48641;51.676;5.808;2022-07-19T02:16:30;7.65;;;3.40;;
62582;SDS011;48641;51.676;5.808;2022-07-19T02:18:55;6.70;;;3.40;;
62582;SDS011;48641;51.676;5.808;2022-07-19T02:21:21;7.80;;;3.70;;
62582;SDS011;48641;51.676;5.808;2022-07-19T02:23:47;6.85;;;3.35;;
62582;SDS011;48641;51.676;5.808;2022-07-19T02:26:12;7.43;;;3.78;;
62582;SDS011;48641;51.676;5.808;2022-07-19T02:28:38;5.88;;;3.35;;
62582;SDS011;48641;51.676;5.808;2022-07-19T02:31:04;8.23;;;3.22;;
62582;SDS011;48641;51.676;5.808;2022-07-19T02:33:30;6.60;;;3.72;;
62582;SDS011;48641;51.676;5.808;2022-07-19T02:35:56;8.95;;;3.70;;
62582;SDS011;48641;51.676;5.808;2022-07-19T02:38:21;6.97;;;3.50;;
62582;SDS011;48641;51.676;5.808;2022-07-19T02:40:47;7.07;;;3.80;;
62582;SDS011;48641;51.676;5.808;2022-07-19T02:43:13;6.72;;;3.67;;
62582;SDS011;48641;51.676;5.808;2022-07-19T02:45:39;7.55;;;3.50;;
62582;SDS011;48641;51.676;5.808;2022-07-19T02:48:04;7.38;;;3.75;;
62582;SDS011;48641;51.676;5.808;2022-07-19T02:50:30;6.50;;;3.60;;
62582;SDS011;48641;51.676;5.808;2022-07-19T02:52:56;7.15;;;3.63;;
62582;SDS011;48641;51.676;5.808;2022-07-19T02:55:22;7.47;;;3.53;;
62582;SDS011;48641;51.676;5.808;2022-07-19T02:57:47;6.70;;;3.72;;
62582;SDS011;48641;51.676;5.808;2022-07-19T03:00:13;7.00;;;3.53;;
62582;SDS011;48641;51.676;5.808;2022-07-19T03:02:39;7.93;;;3.70;;
62582;SDS011;48641;51.676;5.808;2022-07-19T03:05:05;7.20;;;3.72;;
62582;SDS011;48641;51.676;5.808;2022-07-19T03:07:31;7.13;;;3.70;;
62582;SDS011;48641;51.676;5.808;2022-07-19T03:09:57;8.13;;;3.92;;
62582;SDS011;48641;51.676;5.808;2022-07-19T03:12:22;6.80;;;3.33;;
62582;SDS011;48641;51.676;5.808;2022-07-19T03:14:48;9.57;;;3.60;;
62582;SDS011;48641;51.676;5.808;2022-07-19T03:17:13;7.25;;;3.65;;
62582;SDS011;48641;51.676;5.808;2022-07-19T03:19:39;6.25;;;3.78;;
62582;SDS011;48641;51.676;5.808;2022-07-19T03:22:05;7.03;;;3.60;;
62582;SDS011;48641;51.676;5.808;2022-07-19T03:24:30;6.32;;;3.53;;
62582;SDS011;48641;51.676;5.808;2022-07-19T03:26:56;5.80;;;3.25;;
62582;SDS011;48641;51.676;5.808;2022-07-19T03:29:21;8.20;;;3.80;;
62582;SDS011;48641;51.676;5.808;2022-07-19T03:31:47;7.38;;;3.50;;
62582;SDS011;48641;51.676;5.808;2022-07-19T03:34:13;6.85;;;3.90;;
62582;SDS011;48641;51.676;5.808;2022-07-19T03:36:38;6.53;;;3.33;;
62582;SDS011;48641;51.676;5.808;2022-07-19T03:39:04;6.95;;;3.58;;
62582;SDS011;48641;51.676;5.808;2022-07-19T03:41:30;8.50;;;4.13;;
62582;SDS011;48641;51.676;5.808;2022-07-19T03:43:56;6.93;;;3.47;;
62582;SDS011;48641;51.676;5.808;2022-07-19T03:46:21;8.88;;;3.40;;
62582;SDS011;48641;51.676;5.808;2022-07-19T03:48:47;7.50;;;3.70;;
62582;SDS011;48641;51.676;5.808;2022-07-19T03:51:13;7.40;;;3.70;;
62582;SDS011;48641;51.676;5.808;2022-07-19T03:53:39;7.90;;;3.70;;
62582;SDS011;48641;51.676;5.808;2022-07-19T03:56:04;8.27;;;3.65;;
62582;SDS011;48641;51.676;5.808;2022-07-19T03:58:30;8.15;;;3.80;;
62582;SDS011;48641;51.676;5.808;2022-07-19T04:00:56;7.80;;;3.75;;
62582;SDS011;48641;51.676;5.808;2022-07-19T04:03:22;7.22;;;3.65;;
62582;SDS011;48641;51.676;5.808;2022-07-19T04:05:47;6.38;;;3.80;;
62582;SDS011;48641;51.676;5.808;2022-07-19T04:08:13;7.28;;;3.50;;
62582;SDS011;48641;51.676;5.808;2022-07-19T04:10:39;7.65;;;3.58;;
62582;SDS011;48641;51.676;5.808;2022-07-19T04:13:05;6.18;;;3.67;;
62582;SDS011;48641;51.676;5.808;2022-07-19T04:15:31;8.07;;;3.50;;
62582;SDS011;48641;51.676;5.808;2022-07-19T04:17:57;7.18;;;3.85;;
62582;SDS011;48641;51.676;5.808;2022-07-19T04:20:23;6.13;;;3.67;;
62582;SDS011;48641;51.676;5.808;2022-07-19T04:22:48;8.57;;;4.15;;
62582;SDS011;48641;51.676;5.808;2022-07-19T04:25:14;7.20;;;4.00;;
62582;SDS011;48641;51.676;5.808;2022-07-19T04:27:40;6.80;;;3.67;;
62582;SDS011;48641;51.676;5.808;2022-07-19T04:30:05;7.78;;;3.90;;
62582;SDS011;48641;51.676;5.808;2022-07-19T04:32:32;6.88;;;3.58;;
62582;SDS011;48641;51.676;5.808;2022-07-19T04:34:59;7.47;;;3.65;;
62582;SDS011;48641;51.676;5.808;2022-07-19T04:37:25;8.23;;;3.55;;
62582;SDS011;48641;51.676;5.808;2022-07-19T04:39:51;6.75;;;3.55;;
62582;SDS011;48641;51.676;5.808;2022-07-19T04:42:16;6.25;;;3.63;;
62582;SDS011;48641;51.676;5.808;2022-07-19T04:44:42;6.72;;;3.70;;
62582;SDS011;48641;51.676;5.808;2022-07-19T04:47:08;6.43;;;3.33;;
62582;SDS011;48641;51.676;5.808;2022-07-19T04:49:33;5.88;;;3.25;;
62582;SDS011;48641;51.676;5.808;2022-07-19T04:51:59;6.35;;;3.60;;
62582;SDS011;48641;51.676;5.808;2022-07-19T04:54:25;7.00;;;3.50;;
62582;SDS011;48641;51.676;5.808;2022-07-19T04:56:50;9.57;;;3.67;;
62582;SDS011;48641;51.676;5.808;2022-07-19T04:59:16;7.65;;;3.83;;
62582;SDS011;48641;51.676;5.808;2022-07-19T05:01:42;7.50;;;3.83;;
62582;SDS011;48641;51.676;5.808;2022-07-19T05:04:07;8.10;;;3.60;;
62582;SDS011;48641;51.676;5.808;2022-07-19T05:06:33;6.82;;;3.50;;
62582;SDS011;48641;51.676;5.808;2022-07-19T05:08:58;6.75;;;3.80;;
62582;SDS011;48641;51.676;5.808;2022-07-19T05:11:24;6.18;;;3.33;;
62582;SDS011;48641;51.676;5.808;2022-07-19T05:13:50;7.65;;;3.80;;
62582;SDS011;48641;51.676;5.808;2022-07-19T05:16:15;5.97;;;3.65;;
62582;SDS011;48641;51.676;5.808;2022-07-19T05:18:41;6.63;;;3.70;;
62582;SDS011;48641;51.676;5.808;2022-07-19T05:21:06;8.05;;;3.72;;
62582;SDS011;48641;51.676;5.808;2022-07-19T05:23:32;7.93;;;4.07;;
62582;SDS011;48641;51.676;5.808;2022-07-19T05:25:57;8.25;;;4.10;;
62582;SDS011;48641;51.676;5.808;2022-07-19T05:28:23;6.80;;;3.72;;
62582;SDS011;48641;51.676;5.808;2022-07-19T05:30:48;8.02;;;4.05;;
62582;SDS011;48641;51.676;5.808;2022-07-19T05:33:14;7.03;;;4.05;;
62582;SDS011;48641;51.676;5.808;2022-07-19T05:35:41;9.02;;;4.60;;
62582;SDS011;48641;51.676;5.808;2022-07-19T05:38:07;6.55;;;3.65;;
62582;SDS011;48641;51.676;5.808;2022-07-19T05:40:32;7.45;;;3.90;;
62582;SDS011;48641;51.676;5.808;2022-07-19T05:42:58;7.40;;;4.10;;
62582;SDS011;48641;51.676;5.808;2022-07-19T05:45:25;6.63;;;3.63;;
62582;SDS011;48641;51.676;5.808;2022-07-19T05:47:51;7.00;;;4.05;;
62582;SDS011;48641;51.676;5.808;2022-07-19T05:50:16;6.57;;;3.58;;
62582;SDS011;48641;51.676;5.808;2022-07-19T05:52:42;8.10;;;3.80;;
62582;SDS011;48641;51.676;5.808;2022-07-19T05:55:07;7.43;;;3.83;;
62582;SDS011;48641;51.676;5.808;2022-07-19T05:57:33;8.30;;;3.95;;
62582;SDS011;48641;51.676;5.808;2022-07-19T05:59:59;9.60;;;4.63;;
62582;SDS011;48641;51.676;5.808;2022-07-19T06:02:24;8.75;;;3.90;;
62582;SDS011;48641;51.676;5.808;2022-07-19T06:04:50;9.98;;;4.70;;
62582;SDS011;48641;51.676;5.808;2022-07-19T06:07:16;7.72;;;4.10;;
62582;SDS011;48641;51.676;5.808;2022-07-19T06:09:41;12.23;;;4.78;;
62582;SDS011;48641;51.676;5.808;2022-07-19T06:12:07;10.82;;;4.82;;
62582;SDS011;48641;51.676;5.808;2022-07-19T06:14:33;11.93;;;4.85;;
62582;SDS011;48641;51.676;5.808;2022-07-19T06:16:59;14.93;;;5.05;;
62582;SDS011;48641;51.676;5.808;2022-07-19T06:19:24;13.18;;;4.50;;
62582;SDS011;48641;51.676;5.808;2022-07-19T06:21:51;13.65;;;4.90;;
62582;SDS011;48641;51.676;5.808;2022-07-19T06:24:17;11.02;;;5.38;;
62582;SDS011;48641;51.676;5.808;2022-07-19T06:26:43;9.73;;;4.75;;
62582;SDS011;48641;51.676;5.808;2022-07-19T06:29:09;13.80;;;5.43;;
62582;SDS011;48641;51.676;5.808;2022-07-19T06:31:34;10.57;;;5.07;;
62582;SDS011;48641;51.676;5.808;2022-07-19T06:34:00;11.18;;;4.97;;
62582;SDS011;48641;51.676;5.808;2022-07-19T06:36:26;12.30;;;5.25;;
62582;SDS011;48641;51.676;5.808;2022-07-19T06:38:52;13.02;;;5.43;;
62582;SDS011;48641;51.676;5.808;2022-07-19T06:41:18;11.32;;;5.50;;
62582;SDS011;48641;51.676;5.808;2022-07-19T06:43:43;10.65;;;4.97;;
62582;SDS011;48641;51.676;5.808;2022-07-19T06:46:09;11.15;;;4.82;;
62582;SDS011;48641;51.676;5.808;2022-07-19T06:48:35;9.43;;;4.65;;
62582;SDS011;48641;51.676;5.808;2022-07-19T06:51:01;9.70;;;4.50;;
62582;SDS011;48641;51.676;5.808;2022-07-19T06:53:27;9.80;;;5.10;;
62582;SDS011;48641;51.676;5.808;2022-07-19T06:55:53;10.82;;;4.00;;
62582;SDS011;48641;51.676;5.808;2022-07-19T06:58:18;10.23;;;4.43;;
62582;SDS011;48641;51.676;5.808;2022-07-19T07:00:44;9.73;;;4.40;;
62582;SDS011;48641;51.676;5.808;2022-07-19T07:03:10;9.35;;;4.32;;
62582;SDS011;48641;51.676;5.808;2022-07-19T07:05:36;9.00;;;3.85;;
62582;SDS011;48641;51.676;5.808;2022-07-19T07:08:01;12.68;;;4.85;;
62582;SDS011;48641;51.676;5.808;2022-07-19T07:10:27;8.57;;;4.32;;
62582;SDS011;48641;51.676;5.808;2022-07-19T07:12:53;8.90;;;4.00;;
62582;SDS011;48641;51.676;5.808;2022-07-19T07:15:18;8.18;;;4.00;;
62582;SDS011;48641;51.676;5.808;2022-07-19T07:17:44;9.20;;;4.50;;
62582;SDS011;48641;51.676;5.808;2022-07-19T07:20:10;10.07;;;4.72;;
62582;SDS011;48641;51.676;5.808;2022-07-19T07:22:36;9.88;;;4.72;;
62582;SDS011;48641;51.676;5.808;2022-07-19T07:25:03;10.63;;;5.30;;
62582;SDS011;48641;51.676;5.808;2022-07-19T07:27:29;9.73;;;5.03;;
62582;SDS011;48641;51.676;5.808;2022-07-19T07:29:55;8.15;;;4.30;;
62582;SDS011;48641;51.676;5.808;2022-07-19T07:32:20;8.93;;;4.95;;
62582;SDS011;48641;51.676;5.808;2022-07-19T07:34:46;10.30;;;4.57;;
62582;SDS011;48641;51.676;5.808;2022-07-19T07:37:12;8.30;;;4.50;;
62582;SDS011;48641;51.676;5.808;2022-07-19T07:39:38;9.10;;;4.68;;
62582;SDS011;48641;51.676;5.808;2022-07-19T07:42:04;10.45;;;4.40;;
62582;SDS011;48641;51.676;5.808;2022-07-19T07:44:30;10.85;;;5.05;;
62582;SDS011;48641;51.676;5.808;2022-07-19T07:46:56;12.25;;;5.22;;
62582;SDS011;48641;51.676;5.808;2022-07-19T07:49:22;9.43;;;4.53;;
62582;SDS011;48641;51.676;5.808;2022-07-19T07:51:48;9.55;;;4.43;;
62582;SDS011;48641;51.676;5.808;2022-07-19T07:54:14;8.38;;;4.10;;
62582;SDS011;48641;51.676;5.808;2022-07-19T07:56:40;8.57;;;4.68;;
62582;SDS011;48641;51.676;5.808;2022-07-19T07:59:06;9.35;;;4.88;;
62582;SDS011;48641;51.676;5.808;2022-07-19T08:01:31;8.20;;;5.03;;
62582;SDS011;48641;51.676;5.808;2022-07-19T08:03:57;9.63;;;5.28;;
62582;SDS011;48641;51.676;5.808;2022-07-19T08:06:23;10.15;;;5.82;;
62582;SDS011;48641;51.676;5.808;2022-07-19T08:08:48;10.00;;;5.38;;
62582;SDS011;48641;51.676;5.808;2022-07-19T08:11:14;10.95;;;5.68;;
62582;SDS011;48641;51.676;5.808;2022-07-19T08:13:40;10.73;;;5.55;;
62582;SDS011;48641;51.676;5.808;2022-07-19T08:16:05;8.23;;;4.85;;
62582;SDS011;48641;51.676;5.808;2022-07-19T08:18:32;12.30;;;5.03;;
62582;SDS011;48641;51.676;5.808;2022-07-19T08:20:58;9.45;;;4.97;;
62582;SDS011;48641;51.676;5.808;2022-07-19T08:23:23;9.48;;;4.88;;
62582;SDS011;48641;51.676;5.808;2022-07-19T08:25:49;10.85;;;4.70;;
62582;SDS011;48641;51.676;5.808;2022-07-19T08:28:14;8.20;;;5.13;;
62582;SDS011;48641;51.676;5.808;2022-07-19T08:30:40;10.35;;;5.05;;
62582;SDS011;48641;51.676;5.808;2022-07-19T08:33:06;9.60;;;5.80;;
62582;SDS011;48641;51.676;5.808;2022-07-19T08:35:33;10.57;;;5.35;;
62582;SDS011;48641;51.676;5.808;2022-07-19T08:38:02;10.88;;;4.85;;
62582;SDS011;48641;51.676;5.808;2022-07-19T08:40:27;9.02;;;5.32;;
62582;SDS011;48641;51.676;5.808;2022-07-19T08:42:54;11.50;;;5.32;;
62582;SDS011;48641;51.676;5.808;2022-07-19T08:47:50;8.30;;;5.13;;
62582;SDS011;48641;51.676;5.808;2022-07-19T08:50:16;10.55;;;5.80;;
62582;SDS011;48641;51.676;5.808;2022-07-19T08:52:41;9.55;;;5.57;;
62582;SDS011;48641;51.676;5.808;2022-07-19T08:55:07;11.15;;;5.15;;
62582;SDS011;48641;51.676;5.808;2022-07-19T08:57:34;9.80;;;5.68;;
62582;SDS011;48641;51.676;5.808;2022-07-19T09:00:18;9.82;;;5.40;;
62582;SDS011;48641;51.676;5.808;2022-07-19T09:02:51;10.52;;;5.32;;
62582;SDS011;48641;51.676;5.808;2022-07-19T09:05:21;9.23;;;5.55;;
62582;SDS011;48641;51.676;5.808;2022-07-19T09:08:00;10.75;;;6.15;;
62582;SDS011;48641;51.676;5.808;2022-07-19T09:10:30;10.68;;;4.90;;
62582;SDS011;48641;51.676;5.808;2022-07-19T09:13:08;10.05;;;5.40;;
62582;SDS011;48641;51.676;5.808;2022-07-19T09:15:42;8.85;;;5.25;;
62582;SDS011;48641;51.676;5.808;2022-07-19T09:18:15;10.10;;;5.45;;
62582;SDS011;48641;51.676;5.808;2022-07-19T09:20:47;11.50;;;5.55;;
62582;SDS011;48641;51.676;5.808;2022-07-19T09:23:14;11.57;;;6.05;;
62582;SDS011;48641;51.676;5.808;2022-07-19T09:25:47;10.40;;;5.75;;
62582;SDS011;48641;51.676;5.808;2022-07-19T09:28:15;11.45;;;5.82;;
62582;SDS011;48641;51.676;5.808;2022-07-19T09:30:43;12.25;;;5.72;;
62582;SDS011;48641;51.676;5.808;2022-07-19T09:33:11;10.75;;;5.72;;
62582;SDS011;48641;51.676;5.808;2022-07-19T09:35:43;11.82;;;5.68;;
62582;SDS011;48641;51.676;5.808;2022-07-19T09:41:11;9.60;;;5.78;;
62582;SDS011;48641;51.676;5.808;2022-07-19T09:46:33;9.10;;;5.50;;
62582;SDS011;48641;51.676;5.808;2022-07-19T09:49:06;9.48;;;6.10;;
62582;SDS011;48641;51.676;5.808;2022-07-19T09:51:34;12.27;;;5.80;;
62582;SDS011;48641;51.676;5.808;2022-07-19T09:54:02;11.30;;;5.80;;
62582;SDS011;48641;51.676;5.808;2022-07-19T09:56:28;11.52;;;5.50;;
62582;SDS011;48641;51.676;5.808;2022-07-19T09:58:55;11.02;;;5.65;;
62582;SDS011;48641;51.676;5.808;2022-07-19T10:01:23;9.18;;;5.28;;
62582;SDS011;48641;51.676;5.808;2022-07-19T10:03:50;9.95;;;5.40;;
62582;SDS011;48641;51.676;5.808;2022-07-19T10:06:19;9.60;;;5.50;;
62582;SDS011;48641;51.676;5.808;2022-07-19T10:08:45;9.05;;;5.45;;
62582;SDS011;48641;51.676;5.808;2022-07-19T10:11:11;9.82;;;5.13;;
62582;SDS011;48641;51.676;5.808;2022-07-19T10:13:38;10.80;;;5.53;;
62582;SDS011;48641;51.676;5.808;2022-07-19T10:16:05;10.00;;;5.35;;
62582;SDS011;48641;51.676;5.808;2022-07-19T10:18:39;10.57;;;5.70;;
62582;SDS011;48641;51.676;5.808;2022-07-19T10:23:49;7.75;;;5.40;;
62582;SDS011;48641;51.676;5.808;2022-07-19T10:26:38;8.35;;;4.93;;
62582;SDS011;48641;51.676;5.808;2022-07-19T10:29:10;8.23;;;4.97;;
62582;SDS011;48641;51.676;5.808;2022-07-19T10:31:39;10.90;;;5.38;;
62582;SDS011;48641;51.676;5.808;2022-07-19T10:42:11;7.43;;;4.85;;
62582;SDS011;48641;51.676;5.808;2022-07-19T10:49:48;9.75;;;5.05;;
62582;SDS011;48641;51.676;5.808;2022-07-19T10:55:40;8.15;;;4.82;;
62582;SDS011;48641;51.676;5.808;2022-07-19T10:57:40;8.25;;;4.47;;
62582;SDS011;48641;51.676;5.808;2022-07-19T11:00:16;8.75;;;4.50;;
62582;SDS011;48641;51.676;5.808;2022-07-19T11:02:42;9.68;;;4.63;;
62582;SDS011;48641;51.676;5.808;2022-07-19T11:05:08;8.23;;;4.78;;
62582;SDS011;48641;51.676;5.808;2022-07-19T11:07:48;8.75;;;4.88;;
62582;SDS011;48641;51.676;5.808;2022-07-19T11:10:21;8.85;;;4.63;;
62582;SDS011;48641;51.676;5.808;2022-07-19T11:12:47;6.57;;;4.28;;
62582;SDS011;48641;51.676;5.808;2022-07-19T11:15:13;9.07;;;4.43;;
62582;SDS011;48641;51.676;5.808;2022-07-19T11:17:39;7.88;;;4.45;;
62582;SDS011;48641;51.676;5.808;2022-07-19T11:20:11;9.48;;;4.55;;
62582;SDS011;48641;51.676;5.808;2022-07-19T11:22:41;9.25;;;4.30;;
62582;SDS011;48641;51.676;5.808;2022-07-19T11:25:09;8.95;;;4.13;;
62582;SDS011;48641;51.676;5.808;2022-07-19T11:27:39;7.88;;;4.63;;
62582;SDS011;48641;51.676;5.808;2022-07-19T11:30:08;9.30;;;4.60;;
62582;SDS011;48641;51.676;5.808;2022-07-19T11:32:35;7.43;;;4.30;;
62582;SDS011;48641;51.676;5.808;2022-07-19T11:35:05;7.13;;;4.20;;
62582;SDS011;48641;51.676;5.808;2022-07-19T11:37:35;8.15;;;4.18;;
62582;SDS011;48641;51.676;5.808;2022-07-19T11:40:03;7.88;;;4.10;;
62582;SDS011;48641;51.676;5.808;2022-07-19T11:47:32;7.82;;;4.07;;
62582;SDS011;48641;51.676;5.808;2022-07-19T11:50:02;7.97;;;3.60;;
62582;SDS011;48641;51.676;5.808;2022-07-19T11:53:14;7.35;;;3.78;;
62582;SDS011;48641;51.676;5.808;2022-07-19T11:55:22;7.43;;;3.80;;
62582;SDS011;48641;51.676;5.808;2022-07-19T11:57:49;7.50;;;4.13;;
62582;SDS011;48641;51.676;5.808;2022-07-19T12:00:16;8.18;;;3.75;;
62582;SDS011;48641;51.676;5.808;2022-07-19T12:02:49;8.05;;;3.83;;
62582;SDS011;48641;51.676;5.808;2022-07-19T12:05:24;7.13;;;3.47;;
62582;SDS011;48641;51.676;5.808;2022-07-19T12:07:51;6.60;;;3.30;;
62582;SDS011;48641;51.676;5.808;2022-07-19T12:13:26;6.03;;;3.20;;
62582;SDS011;48641;51.676;5.808;2022-07-19T12:15:55;7.45;;;3.60;;
62582;SDS011;48641;51.676;5.808;2022-07-19T12:18:22;7.07;;;3.80;;
62582;SDS011;48641;51.676;5.808;2022-07-19T12:21:16;7.93;;;3.88;;
62582;SDS011;48641;51.676;5.808;2022-07-19T12:26:43;13.38;;;4.22;;
62582;SDS011;48641;51.676;5.808;2022-07-19T12:31:49;8.65;;;4.35;;
62582;SDS011;48641;51.676;5.808;2022-07-19T12:34:16;10.85;;;4.72;;
62582;SDS011;48641;51.676;5.808;2022-07-19T12:36:43;8.30;;;4.22;;
62582;SDS011;48641;51.676;5.808;2022-07-19T12:42:04;10.80;;;5.72;;
62582;SDS011;48641;51.676;5.808;2022-07-19T12:44:32;9.50;;;5.47;;
62582;SDS011;48641;51.676;5.808;2022-07-19T12:46:59;11.20;;;5.40;;
62582;SDS011;48641;51.676;5.808;2022-07-19T12:49:24;11.50;;;5.97;;
62582;SDS011;48641;51.676;5.808;2022-07-19T12:51:51;12.90;;;6.38;;
62582;SDS011;48641;51.676;5.808;2022-07-19T12:54:17;11.07;;;6.57;;
62582;SDS011;48641;51.676;5.808;2022-07-19T12:56:43;11.60;;;7.07;;
62582;SDS011;48641;51.676;5.808;2022-07-19T12:59:08;13.35;;;6.32;;
62582;SDS011;48641;51.676;5.808;2022-07-19T13:01:53;10.98;;;6.32;;
62582;SDS011;48641;51.676;5.808;2022-07-19T13:04:18;11.25;;;6.03;;
62582;SDS011;48641;51.676;5.808;2022-07-19T13:06:46;12.45;;;6.38;;
62582;SDS011;48641;51.676;5.808;2022-07-19T13:09:12;13.38;;;6.60;;
62582;SDS011;48641;51.676;5.808;2022-07-19T13:11:37;10.45;;;5.80;;
62582;SDS011;48641;51.676;5.808;2022-07-19T13:14:03;10.80;;;5.82;;
62582;SDS011;48641;51.676;5.808;2022-07-19T13:16:31;12.15;;;6.00;;
62582;SDS011;48641;51.676;5.808;2022-07-19T13:18:57;11.57;;;5.93;;
62582;SDS011;48641;51.676;5.808;2022-07-19T13:21:22;11.40;;;5.32;;
62582;SDS011;48641;51.676;5.808;2022-07-19T13:23:48;12.40;;;6.60;;
62582;SDS011;48641;51.676;5.808;2022-07-19T13:26:14;9.00;;;5.20;;
62582;SDS011;48641;51.676;5.808;2022-07-19T13:28:39;10.88;;;5.28;;
62582;SDS011;48641;51.676;5.808;2022-07-19T13:31:05;10.70;;;5.30;;
62582;SDS011;48641;51.676;5.808;2022-07-19T13:33:30;10.27;;;5.45;;
62582;SDS011;48641;51.676;5.808;2022-07-19T13:35:56;8.10;;;5.05;;
62582;SDS011;48641;51.676;5.808;2022-07-19T13:38:22;10.00;;;4.70;;
62582;SDS011;48641;51.676;5.808;2022-07-19T13:40:47;9.60;;;5.32;;
62582;SDS011;48641;51.676;5.808;2022-07-19T13:43:13;9.27;;;4.85;;
62582;SDS011;48641;51.676;5.808;2022-07-19T13:45:39;10.05;;;5.07;;
62582;SDS011;48641;51.676;5.808;2022-07-19T13:48:04;11.65;;;5.60;;
62582;SDS011;48641;51.676;5.808;2022-07-19T13:50:30;11.32;;;5.60;;
62582;SDS011;48641;51.676;5.808;2022-07-19T13:52:56;9.27;;;4.95;;
62582;SDS011;48641;51.676;5.808;2022-07-19T13:55:23;10.43;;;5.28;;
62582;SDS011;48641;51.676;5.808;2022-07-19T13:57:49;9.55;;;5.13;;
62582;SDS011;48641;51.676;5.808;2022-07-19T14:00:15;11.18;;;4.95;;
62582;SDS011;48641;51.676;5.808;2022-07-19T14:02:42;9.68;;;4.88;;
62582;SDS011;48641;51.676;5.808;2022-07-19T14:05:09;9.15;;;4.70;;
62582;SDS011;48641;51.676;5.808;2022-07-19T14:07:34;10.80;;;4.95;;
62582;SDS011;48641;51.676;5.808;2022-07-19T14:10:00;11.65;;;5.22;;
62582;SDS011;48641;51.676;5.808;2022-07-19T14:12:26;12.80;;;5.20;;
62582;SDS011;48641;51.676;5.808;2022-07-19T14:14:51;14.02;;;5.10;;
62582;SDS011;48641;51.676;5.808;2022-07-19T14:17:17;15.98;;;5.40;;
62582;SDS011;48641;51.676;5.808;2022-07-19T14:19:43;11.00;;;5.15;;
62582;SDS011;48641;51.676;5.808;2022-07-19T14:22:09;11.52;;;5.63;;
62582;SDS011;48641;51.676;5.808;2022-07-19T14:24:34;11.05;;;5.00;;
62582;SDS011;48641;51.676;5.808;2022-07-19T14:27:00;11.25;;;5.50;;
62582;SDS011;48641;51.676;5.808;2022-07-19T14:29:26;9.65;;;5.07;;
62582;SDS011;48641;51.676;5.808;2022-07-19T14:31:51;11.05;;;4.95;;
62582;SDS011;48641;51.676;5.808;2022-07-19T14:34:17;10.52;;;4.68;;
62582;SDS011;48641;51.676;5.808;2022-07-19T14:36:43;9.35;;;4.72;;
62582;SDS011;48641;51.676;5.808;2022-07-19T14:39:08;11.27;;;5.35;;
62582;SDS011;48641;51.676;5.808;2022-07-19T14:41:36;9.90;;;4.53;;
62582;SDS011;48641;51.676;5.808;2022-07-19T14:44:02;8.75;;;4.38;;
62582;SDS011;48641;51.676;5.808;2022-07-19T14:46:28;10.18;;;4.28;;
62582;SDS011;48641;51.676;5.808;2022-07-19T14:48:53;11.38;;;4.03;;
62582;SDS011;48641;51.676;5.808;2022-07-19T14:51:19;8.90;;;4.20;;
62582;SDS011;48641;51.676;5.808;2022-07-19T14:53:45;10.95;;;4.70;;
62582;SDS011;48641;51.676;5.808;2022-07-19T14:56:10;12.00;;;4.65;;
62582;SDS011;48641;51.676;5.808;2022-07-19T14:58:36;11.82;;;4.55;;
62582;SDS011;48641;51.676;5.808;2022-07-19T15:01:02;10.98;;;4.05;;
62582;SDS011;48641;51.676;5.808;2022-07-19T15:03:28;10.27;;;4.10;;
62582;SDS011;48641;51.676;5.808;2022-07-19T15:05:53;8.00;;;3.85;;
62582;SDS011;48641;51.676;5.808;2022-07-19T15:08:19;10.75;;;3.95;;
62582;SDS011;48641;51.676;5.808;2022-07-19T15:10:44;10.43;;;3.80;;
62582;SDS011;48641;51.676;5.808;2022-07-19T15:13:10;7.35;;;3.67;;
62582;SDS011;48641;51.676;5.808;2022-07-19T15:15:36;8.93;;;3.92;;
62582;SDS011;48641;51.676;5.808;2022-07-19T15:18:01;7.25;;;3.70;;
62582;SDS011;48641;51.676;5.808;2022-07-19T15:20:27;7.97;;;4.07;;
62582;SDS011;48641;51.676;5.808;2022-07-19T15:22:53;8.38;;;3.58;;